Time;durP1;ratioP1;P1;durP2;ratioP2;P2;SDS_P1;SDS_P2;PMS_P1;PMS_P2;Temp;Humidity;BMP_temperature;BMP_pressure;BME280_temperature;BME280_humidity;BME280_pressure;Samples;Min_cycle;Max_cycle;Signal;HPM_P1;HPM_P2
2022/11/26 00:01:41;;;;;;;30.60;11.90;;;;;;;6.76;100.00;101622.56;105401;1295;62493;-78
2022/11/26 00:04:09;;;;;;;28.40;12.20;;;;;;;6.77;100.00;101626.19;105616;1291;59247;-79
2022/11/26 00:06:41;;;;;;;30.90;11.40;;;;;;;6.77;100.00;101624.23;105480;1288;75622;-78
2022/11/26 00:09:17;;;;;;;27.80;12.40;;;;;;;6.76;100.00;101626.42;105486;1293;69047;-79
2022/11/26 00:11:47;;;;;;;25.00;11.10;;;;;;;6.76;100.00;101625.73;105365;1305;72953;-79
2022/11/26 00:14:15;;;;;;;33.00;12.30;;;;;;;6.75;100.00;101627.39;105337;1287;59944;-79
2022/11/26 00:16:42;;;;;;;26.30;11.90;;;;;;;6.76;100.00;101636.48;105489;1290;59770;-79
2022/11/26 00:19:09;;;;;;;26.00;12.10;;;;;;;6.76;100.00;101640.73;105460;1295;74804;-79
2022/11/26 00:21:39;;;;;;;29.20;11.70;;;;;;;6.74;100.00;101640.81;105530;1294;71688;-80
2022/11/26 00:24:25;;;;;;;25.20;11.90;;;;;;;6.72;100.00;101641.30;105476;1295;72691;-78
2022/11/26 00:26:53;;;;;;;30.70;12.20;;;;;;;6.71;100.00;101646.00;105493;1294;60444;-79
2022/11/26 00:29:20;;;;;;;27.70;11.70;;;;;;;6.71;100.00;101645.64;105453;1288;61179;-78
2022/11/26 00:31:46;;;;;;;27.90;12.70;;;;;;;6.70;100.00;101650.17;105497;1295;59112;-79
2022/11/26 00:34:13;;;;;;;28.60;11.70;;;;;;;6.68;100.00;101651.33;105604;1293;59993;-79
2022/11/26 00:36:42;;;;;;;25.90;11.80;;;;;;;6.67;100.00;101652.47;105481;1295;59037;-79
2022/11/26 00:39:28;;;;;;;33.10;12.00;;;;;;;6.67;100.00;101656.58;105497;1295;59276;-78
2022/11/26 00:41:55;;;;;;;27.30;11.50;;;;;;;6.65;100.00;101661.67;105496;1294;61422;-79
2022/11/26 00:44:23;;;;;;;29.80;12.20;;;;;;;6.62;100.00;101664.52;105489;1295;73547;-79
2022/11/26 00:46:50;;;;;;;28.30;11.10;;;;;;;6.59;100.00;101670.19;105489;1293;69914;-80
2022/11/26 00:49:17;;;;;;;26.20;11.60;;;;;;;6.58;100.00;101673.51;105499;1292;72246;-79
2022/11/26 00:51:45;;;;;;;30.50;11.90;;;;;;;6.54;100.00;101676.98;105378;1288;61099;-79
2022/11/26 00:54:16;;;;;;;28.40;11.60;;;;;;;6.50;100.00;101680.36;105504;1286;59177;-79
2022/11/26 00:56:42;;;;;;;31.30;12.00;;;;;;;6.48;100.00;101689.90;105539;1287;74642;-79
2022/11/26 00:59:15;;;;;;;31.80;11.70;;;;;;;6.46;100.00;101691.98;105503;1295;70723;-79
2022/11/26 01:01:41;;;;;;;29.70;11.30;;;;;;;6.43;100.00;101697.63;105490;1295;71479;-79
2022/11/26 01:04:08;;;;;;;31.40;11.80;;;;;;;6.42;100.00;101696.88;105484;1295;58948;-79
2022/11/26 01:06:37;;;;;;;31.30;11.70;;;;;;;6.39;100.00;101698.49;105453;1295;59769;-79
2022/11/26 01:09:05;;;;;;;26.30;10.60;;;;;;;6.37;100.00;101708.69;105509;1295;73367;-79
2022/11/26 01:11:32;;;;;;;27.90;11.60;;;;;;;6.35;100.00;101712.73;105472;1295;71572;-79
2022/11/26 01:13:59;;;;;;;34.60;11.40;;;;;;;6.33;100.00;101712.87;105297;1290;59254;-79
2022/11/26 01:16:28;;;;;;;30.60;11.10;;;;;;;6.31;100.00;101711.09;105430;1293;59609;-79
2022/11/26 01:18:58;;;;;;;29.80;11.20;;;;;;;6.29;100.00;101713.50;105468;1303;61632;-79
2022/11/26 01:21:27;;;;;;;31.20;10.90;;;;;;;6.26;100.00;101719.89;105470;1295;74163;-79
2022/11/26 01:23:54;;;;;;;27.10;10.70;;;;;;;6.24;100.00;101722.02;105261;1297;69845;-80
2022/11/26 01:26:24;;;;;;;26.10;11.00;;;;;;;6.21;100.00;101726.14;105597;1294;59966;-79
2022/11/26 01:28:50;;;;;;;27.80;10.80;;;;;;;6.17;100.00;101728.70;105484;1294;61440;-79
2022/11/26 01:31:21;;;;;;;30.60;10.60;;;;;;;6.16;100.00;101730.73;105520;1287;59263;-79
2022/11/26 01:33:48;;;;;;;27.10;10.60;;;;;;;6.14;100.00;101733.83;105495;1294;74630;-79
2022/11/26 01:36:31;;;;;;;24.80;9.50;;;;;;;6.12;100.00;101739.42;105516;1294;72172;-79
2022/11/26 01:39:01;;;;;;;22.10;9.60;;;;;;;6.10;100.00;101742.41;105599;1292;71465;-79
2022/11/26 01:41:53;;;;;;;28.70;10.10;;;;;;;6.08;100.00;101737.66;105507;1294;60551;-79
2022/11/26 01:44:26;;;;;;;26.00;10.70;;;;;;;6.07;100.00;101740.73;105488;1294;60095;-79
2022/11/26 01:46:54;;;;;;;26.60;10.10;;;;;;;6.05;100.00;101744.21;105344;1295;73502;-79
2022/11/26 01:49:33;;;;;;;34.40;10.80;;;;;;;6.04;100.00;101749.02;105534;1293;71040;-79
2022/11/26 01:52:10;;;;;;;27.90;10.40;;;;;;;6.03;100.00;101747.00;105425;1297;71092;-79
2022/11/26 01:54:40;;;;;;;24.80;10.10;;;;;;;6.03;100.00;101751.55;105506;1301;60161;-79
2022/11/26 01:57:14;;;;;;;25.80;10.10;;;;;;;6.02;100.00;101753.90;105475;1293;60192;-79
2022/11/26 01:59:44;;;;;;;24.50;10.20;;;;;;;6.03;100.00;101759.70;105287;1301;72644;-79
2022/11/26 02:02:11;;;;;;;21.00;9.10;;;;;;;6.01;100.00;101759.28;105474;1287;70817;-79
2022/11/26 02:04:45;;;;;;;28.40;10.00;;;;;;;5.98;100.00;101763.01;105591;1290;71387;-79
2022/11/26 02:07:12;;;;;;;22.50;8.90;;;;;;;5.96;100.00;101764.39;105452;1295;61029;-79
2022/11/26 02:09:39;;;;;;;23.20;8.70;;;;;;;5.94;100.00;101762.61;105580;1290;59309;-79
2022/11/26 02:12:05;;;;;;;21.00;8.80;;;;;;;5.92;100.00;101766.94;105546;1287;72915;-79
2022/11/26 02:14:37;;;;;;;22.00;9.00;;;;;;;5.91;100.00;101769.84;105619;1277;59373;-79
2022/11/26 02:17:09;;;;;;;21.90;8.60;;;;;;;5.89;100.00;101768.44;105427;1292;72844;-79
2022/11/26 02:19:58;;;;;;;20.60;8.30;;;;;;;5.86;100.00;101771.09;105543;1295;59620;-79
2022/11/26 02:23:02;;;;;;;29.30;9.20;;;;;;;5.83;100.00;101778.55;105436;1288;59065;-79
2022/11/26 02:25:58;;;;;;;22.90;8.00;;;;;;;5.79;100.00;101780.09;105566;1293;73514;-79
2022/11/26 02:28:43;;;;;;;26.60;8.50;;;;;;;5.76;100.00;101782.63;105493;1294;70432;-79
2022/11/26 02:31:23;;;;;;;19.60;7.80;;;;;;;5.72;100.00;101787.10;105635;1294;71598;-79
2022/11/26 02:33:56;;;;;;;22.80;8.50;;;;;;;5.68;100.00;101786.69;105873;1287;60006;-79
2022/11/26 02:36:34;;;;;;;28.30;8.30;;;;;;;5.66;100.00;101785.48;105763;1293;61632;-79
2022/11/26 02:39:15;;;;;;;23.30;7.70;;;;;;;5.62;100.00;101789.41;105418;1302;75541;-79
2022/11/26 02:41:47;;;;;;;32.40;8.80;;;;;;;5.60;100.00;101796.10;105426;1293;72622;-79
2022/11/26 02:44:16;;;;;;;19.10;7.50;;;;;;;5.58;100.00;101795.00;105495;1291;70376;-79
2022/11/26 02:46:46;;;;;;;19.40;6.80;;;;;;;5.56;100.00;101797.59;105442;1295;60968;-79
2022/11/26 02:49:19;;;;;;;21.60;7.90;;;;;;;5.54;100.00;101801.81;105533;1293;59264;-79
2022/11/26 02:51:53;;;;;;;25.60;7.70;;;;;;;5.52;100.00;101806.33;105440;1294;74369;-79
2022/11/26 02:54:21;;;;;;;25.70;8.20;;;;;;;5.50;100.00;101809.42;105462;1293;70261;-79
2022/11/26 02:56:49;;;;;;;24.80;7.80;;;;;;;5.49;100.00;101812.70;105485;1291;71241;-79
2022/11/26 02:59:16;;;;;;;24.10;7.30;;;;;;;5.48;100.00;101816.84;105563;1292;60894;-79
2022/11/26 03:02:02;;;;;;;25.20;8.00;;;;;;;5.46;100.00;101816.05;105591;1294;61310;-80
2022/11/26 03:04:36;;;;;;;28.30;8.10;;;;;;;5.44;100.00;101817.24;105581;1285;73479;-80
2022/11/26 03:07:05;;;;;;;22.40;7.40;;;;;;;5.43;100.00;101822.65;105492;1294;70717;-80
2022/11/26 03:09:52;;;;;;;27.40;7.80;;;;;;;5.41;100.00;101823.28;105402;1295;71181;-80
2022/11/26 03:12:20;;;;;;;20.90;7.70;;;;;;;5.40;100.00;101825.33;105381;1290;59439;-79
2022/11/26 03:14:46;;;;;;;22.80;7.60;;;;;;;5.37;100.00;101827.96;105476;1293;59318;-79
2022/11/26 03:17:14;;;;;;;22.90;7.40;;;;;;;5.36;100.00;101831.06;105402;1293;73042;-79
2022/11/26 03:19:40;;;;;;;30.60;8.00;;;;;;;5.34;100.00;101834.51;105484;1293;68872;-79
2022/11/26 03:22:07;;;;;;;20.00;7.40;;;;;;;5.32;100.00;101838.33;105575;1287;59270;-79
2022/11/26 03:24:34;;;;;;;21.80;7.60;;;;;;;5.29;100.00;101843.28;105486;1293;59598;-79
2022/11/26 03:27:01;;;;;;;22.60;7.60;;;;;;;5.27;100.00;101849.23;105433;1293;60409;-80
2022/11/26 03:29:27;;;;;;;21.10;7.30;;;;;;;5.24;100.00;101846.30;105455;1290;59109;-80
2022/11/26 03:31:54;;;;;;;19.90;7.20;;;;;;;5.20;100.00;101843.02;105469;1296;59493;-80
2022/11/26 03:34:21;;;;;;;24.00;7.20;;;;;;;5.18;100.00;101845.83;105454;1294;71542;-80
2022/11/26 03:36:48;;;;;;;24.00;7.20;;;;;;;5.16;100.00;101842.65;105412;1295;60967;-80
2022/11/26 03:39:14;;;;;;;25.80;8.00;;;;;;;5.15;100.00;101847.64;105443;1293;61532;-80
2022/11/26 03:41:43;;;;;;;23.90;7.70;;;;;;;5.14;100.00;101846.11;105321;1294;75401;-80
2022/11/26 03:44:10;;;;;;;25.60;7.70;;;;;;;5.14;100.00;101843.73;105480;1294;71306;-80
2022/11/26 03:46:36;;;;;;;24.20;8.10;;;;;;;5.13;100.00;101845.16;105445;1293;72950;-80
2022/11/26 03:49:03;;;;;;;27.40;7.80;;;;;;;5.12;100.00;101846.27;105419;1294;59421;-80
2022/11/26 03:51:29;;;;;;;25.40;7.20;;;;;;;5.12;100.00;101847.70;105487;1294;59344;-80
2022/11/26 03:53:56;;;;;;;20.20;7.50;;;;;;;5.11;100.00;101853.85;105480;1294;73424;-80
2022/11/26 03:56:22;;;;;;;21.10;7.10;;;;;;;5.11;100.00;101853.68;105583;1290;58987;-80
2022/11/26 03:58:49;;;;;;;21.60;7.40;;;;;;;5.11;100.00;101851.77;105573;1293;59319;-80
2022/11/26 04:01:16;;;;;;;25.60;7.50;;;;;;;5.11;100.00;101853.84;105333;1285;60477;-80
2022/11/26 04:03:42;;;;;;;22.10;7.30;;;;;;;5.13;100.00;101854.83;105508;1294;59113;-79
2022/11/26 04:06:08;;;;;;;25.60;7.90;;;;;;;5.13;100.00;101858.69;105574;1293;59386;-79
2022/11/26 04:08:35;;;;;;;21.30;8.10;;;;;;;5.12;100.00;101859.57;105497;1294;60015;-80
2022/11/26 04:11:01;;;;;;;21.80;7.60;;;;;;;5.11;100.00;101862.98;105574;1278;58975;-80
2022/11/26 04:13:28;;;;;;;24.20;7.80;;;;;;;5.12;100.00;101862.02;105614;1294;60639;-80
2022/11/26 04:15:54;;;;;;;26.70;8.70;;;;;;;5.12;100.00;101863.98;105414;1294;59864;-80
2022/11/26 04:18:21;;;;;;;29.90;8.30;;;;;;;5.13;100.00;101865.14;105512;1294;59579;-80
2022/11/26 04:20:47;;;;;;;29.80;9.40;;;;;;;5.14;100.00;101864.21;105564;1294;59129;-80
2022/11/26 04:23:18;;;;;;;26.50;9.10;;;;;;;5.14;100.00;101865.62;105457;1287;70288;-80
2022/11/26 04:25:45;;;;;;;23.40;9.40;;;;;;;5.14;100.00;101865.63;105502;1293;59755;-80
2022/11/26 04:28:13;;;;;;;26.00;9.60;;;;;;;5.13;100.00;101866.00;105402;1295;60169;-80
2022/11/26 04:30:40;;;;;;;31.70;10.30;;;;;;;5.13;100.00;101869.56;105443;1295;73974;-80
2022/11/26 04:33:07;;;;;;;28.00;10.30;;;;;;;5.13;100.00;101870.41;105583;1287;69501;-80
2022/11/26 04:35:33;;;;;;;24.50;10.00;;;;;;;5.13;100.00;101871.10;105491;1291;59358;-80
2022/11/26 04:38:00;;;;;;;27.20;10.50;;;;;;;5.13;100.00;101868.98;105525;1294;59334;-80
2022/11/26 04:40:26;;;;;;;24.30;10.00;;;;;;;5.13;100.00;101874.78;105324;1287;62029;-79
2022/11/26 04:42:53;;;;;;;25.50;9.60;;;;;;;5.12;100.00;101879.02;105412;1295;59912;-80
2022/11/26 04:45:19;;;;;;;23.30;9.10;;;;;;;5.11;100.00;101879.52;105464;1289;60407;-79
2022/11/26 04:47:46;;;;;;;22.60;9.50;;;;;;;5.08;100.00;101882.88;105601;1286;58882;-79
2022/11/26 04:50:12;;;;;;;21.00;9.00;;;;;;;5.05;100.00;101882.75;105636;1293;59206;-79
2022/11/26 04:52:39;;;;;;;18.90;9.20;;;;;;;5.02;100.00;101880.89;105530;1291;58689;-80
2022/11/26 04:55:05;;;;;;;22.80;9.60;;;;;;;4.97;100.00;101879.60;105646;1294;59406;-80
2022/11/26 04:57:32;;;;;;;24.90;10.70;;;;;;;4.94;100.00;101885.29;105240;1281;59041;-79
2022/11/26 04:59:58;;;;;;;24.10;10.70;;;;;;;4.89;100.00;101892.25;103939;1302;61291;-79
2022/11/26 05:02:25;;;;;;;21.70;10.50;;;;;;;4.84;100.00;101896.29;104397;1300;59441;-79
2022/11/26 05:04:51;;;;;;;22.40;10.40;;;;;;;4.78;100.00;101895.14;104114;1294;59672;-79
2022/11/26 05:07:18;;;;;;;22.60;11.00;;;;;;;4.73;100.00;101895.34;103776;1295;61316;-79
2022/11/26 05:09:44;;;;;;;26.10;11.10;;;;;;;4.66;100.00;101892.48;103864;1301;61231;-79
2022/11/26 05:12:11;;;;;;;25.80;11.50;;;;;;;4.62;100.00;101895.73;104029;1296;61636;-79
2022/11/26 05:14:38;;;;;;;25.00;12.00;;;;;;;4.58;100.00;101897.56;103971;1294;61193;-80
2022/11/26 05:17:05;;;;;;;29.60;13.40;;;;;;;4.54;100.00;101897.86;104077;1294;61601;-79
2022/11/26 05:19:31;;;;;;;31.80;13.20;;;;;;;4.52;100.00;101906.47;104690;1294;73563;-80
2022/11/26 05:21:58;;;;;;;30.40;13.60;;;;;;;4.48;100.00;101907.87;103828;1303;69564;-79
2022/11/26 05:24:24;;;;;;;34.60;13.50;;;;;;;4.47;100.00;101911.10;104427;1294;61606;-79
2022/11/26 05:26:51;;;;;;;33.70;14.50;;;;;;;4.45;100.00;101913.34;104236;1300;61261;-79
2022/11/26 05:29:22;;;;;;;29.60;13.40;;;;;;;4.45;100.00;101918.79;104189;1305;61279;-79
2022/11/26 05:31:49;;;;;;;30.00;13.50;;;;;;;4.44;100.00;101923.07;104517;1300;61407;-79
2022/11/26 05:34:15;;;;;;;31.80;13.50;;;;;;;4.43;100.00;101926.11;104166;1301;70783;-79
2022/11/26 05:36:42;;;;;;;38.00;15.20;;;;;;;4.44;100.00;101927.45;104712;1294;60392;-79
2022/11/26 05:39:08;;;;;;;34.10;16.20;;;;;;;4.47;100.00;101935.66;104538;1294;61315;-79
2022/11/26 05:41:35;;;;;;;38.40;15.10;;;;;;;4.48;100.00;101936.09;104793;1287;59200;-79
2022/11/26 05:44:01;;;;;;;35.40;14.90;;;;;;;4.50;100.00;101941.05;103627;1292;61383;-78
2022/11/26 05:46:28;;;;;;;35.10;14.60;;;;;;;4.51;100.00;101942.61;104132;1295;61318;-80
2022/11/26 05:48:54;;;;;;;38.50;15.90;;;;;;;4.55;100.00;101941.96;105069;1291;59341;-80
2022/11/26 05:51:21;;;;;;;31.70;13.70;;;;;;;4.57;100.00;101946.91;105343;1290;59016;-80
2022/11/26 05:53:47;;;;;;;33.50;14.60;;;;;;;4.58;100.00;101949.64;105512;1287;59235;-80
2022/11/26 05:56:14;;;;;;;31.40;14.10;;;;;;;4.60;100.00;101953.16;105436;1293;59363;-80
2022/11/26 05:58:41;;;;;;;34.20;14.10;;;;;;;4.62;100.00;101950.74;105593;1285;70202;-80
2022/11/26 06:01:09;;;;;;;31.20;13.90;;;;;;;4.63;100.00;101951.70;105505;1294;73415;-81
2022/11/26 06:03:36;;;;;;;28.00;13.50;;;;;;;4.66;100.00;101959.60;105513;1287;59914;-81
2022/11/26 06:06:03;;;;;;;32.40;13.70;;;;;;;4.67;100.00;101959.14;105628;1287;60189;-80
2022/11/26 06:08:30;;;;;;;30.20;12.90;;;;;;;4.69;100.00;101957.79;105905;1287;75827;-80
2022/11/26 06:10:57;;;;;;;31.00;13.40;;;;;;;4.71;100.00;101962.05;105885;1293;69759;-80
2022/11/26 06:13:23;;;;;;;28.70;13.00;;;;;;;4.71;100.00;101962.41;105548;1291;59255;-80
2022/11/26 06:15:50;;;;;;;33.60;13.50;;;;;;;4.71;100.00;101963.24;105403;1291;61609;-80
2022/11/26 06:18:17;;;;;;;34.60;13.60;;;;;;;4.74;100.00;101963.61;105507;1294;60107;-79
2022/11/26 06:20:43;;;;;;;31.40;13.20;;;;;;;4.77;100.00;101967.06;105333;1295;74974;-80
2022/11/26 06:23:10;;;;;;;35.40;13.30;;;;;;;4.81;100.00;101965.95;105325;1297;70248;-80
2022/11/26 06:25:39;;;;;;;34.10;13.50;;;;;;;4.83;100.00;101968.39;105296;1297;72777;-80
2022/11/26 06:28:06;;;;;;;31.90;13.70;;;;;;;4.86;100.00;101972.05;105478;1295;59947;-80
2022/11/26 06:30:32;;;;;;;34.10;13.90;;;;;;;4.88;100.00;101975.42;105438;1277;192743;-80
2022/11/26 06:32:59;;;;;;;35.80;13.70;;;;;;;4.90;100.00;101984.91;105532;1294;73516;-80
2022/11/26 06:35:25;;;;;;;31.50;13.20;;;;;;;4.92;100.00;101989.19;105641;1286;58987;-79
2022/11/26 06:37:52;;;;;;;30.80;12.90;;;;;;;4.93;100.00;101993.49;105521;1294;73180;-80
2022/11/26 06:40:19;;;;;;;29.20;12.50;;;;;;;4.91;100.00;101995.21;105532;1294;59630;-80
2022/11/26 06:42:50;;;;;;;31.30;12.10;;;;;;;4.89;100.00;101997.61;105549;1295;59436;-80
2022/11/26 06:45:17;;;;;;;27.90;12.60;;;;;;;4.86;100.00;102000.27;105440;1295;75746;-80
2022/11/26 06:47:48;;;;;;;27.30;12.00;;;;;;;4.85;100.00;102000.35;105466;1297;69568;-80
2022/11/26 06:50:21;;;;;;;31.00;11.80;;;;;;;4.83;100.00;102006.42;105437;1287;71614;-80
2022/11/26 06:52:53;;;;;;;28.30;12.50;;;;;;;4.82;100.00;102009.30;105506;1293;60591;-80
2022/11/26 06:55:20;;;;;;;29.20;12.90;;;;;;;4.81;100.00;102014.08;105463;1293;58946;-80
2022/11/26 06:57:50;;;;;;;28.20;12.80;;;;;;;4.81;100.00;102014.95;105529;1287;74464;-80
2022/11/26 07:00:17;;;;;;;26.70;12.30;;;;;;;4.82;100.00;102021.38;105378;1294;71626;-80
2022/11/26 07:02:43;;;;;;;29.70;12.80;;;;;;;4.83;100.00;102023.98;105490;1294;71578;-80
2022/11/26 07:05:10;;;;;;;29.30;12.60;;;;;;;4.83;100.00;102027.65;105457;1293;59670;-81
2022/11/26 07:07:38;;;;;;;31.60;13.40;;;;;;;4.84;100.00;102032.14;105537;1287;59952;-80
2022/11/26 07:10:06;;;;;;;30.70;12.80;;;;;;;4.84;100.00;102031.92;105492;1295;74686;-80
2022/11/26 07:12:32;;;;;;;33.10;13.00;;;;;;;4.87;100.00;102035.65;105525;1294;70625;-80
2022/11/26 07:14:59;;;;;;;30.10;12.80;;;;;;;4.89;100.00;102035.85;105443;1295;58949;-80
2022/11/26 07:17:26;;;;;;;28.70;12.30;;;;;;;4.91;100.00;102038.84;105507;1294;59122;-80
2022/11/26 07:19:53;;;;;;;28.20;12.40;;;;;;;4.95;100.00;102040.17;104609;1298;59564;-80
2022/11/26 07:22:19;;;;;;;36.10;12.20;;;;;;;4.97;100.00;102043.67;103854;1288;61314;-79
2022/11/26 07:24:46;;;;;;;31.80;12.60;;;;;;;5.00;100.00;102044.89;104144;1301;61327;-79
2022/11/26 07:27:12;;;;;;;26.60;12.70;;;;;;;5.03;100.00;102045.08;104628;1300;61433;-79
2022/11/26 07:29:39;;;;;;;27.10;11.90;;;;;;;5.05;100.00;102048.95;104515;1292;61793;-79
2022/11/26 07:32:05;;;;;;;32.50;11.50;;;;;;;5.06;100.00;102048.70;103835;1297;59714;-79
2022/11/26 07:34:32;;;;;;;28.10;12.20;;;;;;;5.08;100.00;102050.49;104047;1293;59506;-79
2022/11/26 07:36:59;;;;;;;27.70;12.20;;;;;;;5.11;100.00;102050.48;104029;1297;61341;-79
2022/11/26 07:39:25;;;;;;;28.60;13.60;;;;;;;5.13;100.00;102054.90;103965;1294;71493;-79
2022/11/26 07:41:52;;;;;;;28.20;13.10;;;;;;;5.15;100.00;102057.40;103374;1297;61614;-79
2022/11/26 07:44:18;;;;;;;27.30;11.70;;;;;;;5.16;100.00;102058.88;104701;1280;61382;-80
2022/11/26 07:46:45;;;;;;;28.20;11.30;;;;;;;5.17;100.00;102057.58;104164;1294;59460;-79
2022/11/26 07:49:12;;;;;;;26.10;11.20;;;;;;;5.19;100.00;102060.23;104362;1290;59273;-78
2022/11/26 07:51:38;;;;;;;28.50;11.90;;;;;;;5.23;100.00;102063.31;104274;1301;70585;-74
2022/11/26 07:54:07;;;;;;;27.50;12.10;;;;;;;5.27;100.00;102064.98;103812;1300;60259;-74
2022/11/26 07:56:34;;;;;;;26.10;12.40;;;;;;;5.31;100.00;102066.08;103624;1294;61162;-73
2022/11/26 07:59:01;;;;;;;25.30;12.00;;;;;;;5.36;100.00;102068.00;103741;1293;73212;-74
2022/11/26 08:01:29;;;;;;;28.80;12.10;;;;;;;5.41;100.00;102073.30;103821;1295;71159;-74
2022/11/26 08:03:57;;;;;;;28.20;12.60;;;;;;;5.45;100.00;102078.09;104046;1302;70866;-74
2022/11/26 08:06:27;;;;;;;27.90;12.20;;;;;;;5.49;100.00;102082.91;104368;1294;61202;-74
2022/11/26 08:08:54;;;;;;;28.30;12.30;;;;;;;5.53;100.00;102082.27;105421;1287;60421;-74
2022/11/26 08:11:23;;;;;;;24.50;11.70;;;;;;;5.58;100.00;102086.48;105421;1288;74774;-74
2022/11/26 08:13:58;;;;;;;30.70;12.60;;;;;;;5.63;100.00;102092.62;105519;1286;71382;-74
2022/11/26 08:16:25;;;;;;;31.40;12.00;;;;;;;5.70;100.00;102095.64;105428;1295;72870;-74
2022/11/26 08:18:56;;;;;;;28.20;11.80;;;;;;;5.76;100.00;102092.79;105433;1290;59697;-74
2022/11/26 08:21:22;;;;;;;24.10;12.30;;;;;;;5.84;100.00;102093.05;105459;1287;59507;-74
2022/11/26 08:23:50;;;;;;;25.30;11.60;;;;;;;5.94;100.00;102095.01;105504;1286;72621;-74
2022/11/26 08:26:18;;;;;;;30.30;12.00;;;;;;;6.04;100.00;102099.23;105336;1297;69531;-74
2022/11/26 08:28:56;;;;;;;30.70;13.00;;;;;;;6.15;100.00;102103.71;105490;1294;71189;-74
2022/11/26 08:31:23;;;;;;;26.50;12.00;;;;;;;6.22;100.00;102104.20;105465;1295;60048;-74
2022/11/26 08:33:50;;;;;;;26.80;12.20;;;;;;;6.31;100.00;102103.95;105596;1293;60065;-76
2022/11/26 08:36:16;;;;;;;25.10;11.70;;;;;;;6.38;100.00;102105.73;105495;1294;58878;-74
2022/11/26 08:38:43;;;;;;;30.70;12.60;;;;;;;6.48;100.00;102108.29;105584;1294;59405;-74
2022/11/26 08:41:11;;;;;;;26.80;13.10;;;;;;;6.60;100.00;102111.80;105514;1295;59343;-74
2022/11/26 08:43:39;;;;;;;30.20;13.50;;;;;;;6.69;100.00;102109.03;105497;1292;59876;-74
2022/11/26 08:46:25;;;;;;;30.90;13.70;;;;;;;6.80;100.00;102115.23;105502;1294;59110;-74
2022/11/26 08:48:55;;;;;;;30.80;13.70;;;;;;;6.95;100.00;102119.74;105563;1287;59016;-74
2022/11/26 08:51:22;;;;;;;26.30;12.60;;;;;;;7.08;100.00;102118.45;105476;1293;71279;-74
2022/11/26 08:53:49;;;;;;;24.90;12.60;;;;;;;7.20;100.00;102118.05;105509;1293;72990;-74
2022/11/26 08:56:15;;;;;;;27.80;13.20;;;;;;;7.30;100.00;102117.94;105496;1294;60449;-74
2022/11/26 08:58:47;;;;;;;28.80;13.80;;;;;;;7.42;100.00;102120.05;105515;1294;59252;-74
2022/11/26 09:01:26;;;;;;;27.00;13.90;;;;;;;7.52;100.00;102125.23;105450;1295;74779;-74
2022/11/26 09:03:55;;;;;;;26.60;12.10;;;;;;;7.62;100.00;102121.99;105442;1287;70906;-74
2022/11/26 09:06:23;;;;;;;25.30;13.30;;;;;;;7.71;100.00;102124.42;105445;1294;71104;-74
2022/11/26 09:11:43;;;;;;;18.30;9.60;;;;;;;7.89;99.98;102130.42;105526;1290;59446;-74
2022/11/26 09:14:11;;;;;;;21.60;10.10;;;;;;;7.92;99.15;102135.77;105564;1287;73492;-75
2022/11/26 09:16:38;;;;;;;27.70;13.50;;;;;;;7.98;99.00;102136.62;105577;1294;72650;-74
2022/11/26 09:19:06;;;;;;;27.50;11.90;;;;;;;8.02;98.89;102137.11;105434;1289;70226;-74
2022/11/26 09:21:34;;;;;;;23.90;11.80;;;;;;;8.05;98.56;102134.66;105494;1294;60626;-74
2022/11/26 09:24:01;;;;;;;22.50;10.70;;;;;;;8.04;97.99;102135.27;105317;1295;59860;-74
2022/11/26 09:26:30;;;;;;;23.70;11.90;;;;;;;7.98;97.51;102137.51;105433;1293;74554;-74
2022/11/26 09:28:56;;;;;;;23.20;10.60;;;;;;;7.94;97.13;102142.40;105320;1293;70777;-73
2022/11/26 09:31:23;;;;;;;25.30;11.40;;;;;;;7.95;97.66;102142.60;103452;1298;71843;-73
2022/11/26 09:33:50;;;;;;;24.70;11.40;;;;;;;7.97;97.51;102141.25;103220;1295;61456;-74
2022/11/26 09:36:17;;;;;;;23.60;12.10;;;;;;;7.99;97.50;102143.05;103732;1294;61314;-74
2022/11/26 09:38:44;;;;;;;26.60;12.20;;;;;;;7.98;97.29;102145.38;103815;1301;73131;-73
2022/11/26 09:41:29;;;;;;;25.60;12.20;;;;;;;8.00;97.49;102146.50;103419;1294;70970;-73
2022/11/26 09:44:26;;;;;;;28.30;13.00;;;;;;;8.04;97.58;102143.52;103729;1284;70751;-73
2022/11/26 09:46:59;;;;;;;29.30;11.50;;;;;;;8.10;97.45;102147.80;102795;1300;61456;-74
2022/11/26 09:50:09;;;;;;;28.10;12.20;;;;;;;8.17;97.44;102155.65;103174;1298;61177;-74
2022/11/26 09:52:55;;;;;;;27.90;12.90;;;;;;;8.25;97.16;102157.16;103514;1300;74416;-74
2022/11/26 09:55:30;;;;;;;26.90;13.00;;;;;;;8.34;97.40;102157.86;103666;1302;70149;-73
2022/11/26 09:58:09;;;;;;;28.40;13.30;;;;;;;8.42;97.31;102157.93;103284;1301;72376;-73
2022/11/26 10:00:45;;;;;;;27.00;12.10;;;;;;;8.49;96.67;102157.39;104174;1294;61394;-73
2022/11/26 10:03:38;;;;;;;28.20;13.30;;;;;;;8.53;95.80;102163.75;103191;1295;61314;-73
2022/11/26 10:06:25;;;;;;;25.20;13.10;;;;;;;8.62;96.11;102164.77;102895;1295;73386;-73
2022/11/26 10:09:22;;;;;;;31.10;15.20;;;;;;;8.73;95.80;102160.66;104211;1295;70961;-73
2022/11/26 10:11:54;;;;;;;27.40;13.20;;;;;;;8.85;95.47;102164.30;105122;1294;71647;-73
2022/11/26 10:14:48;;;;;;;26.30;11.70;;;;;;;8.93;95.05;102165.54;105129;1293;60996;-73
2022/11/26 10:17:49;;;;;;;27.20;12.70;;;;;;;9.03;94.40;102165.82;105192;1290;59170;-73
2022/11/26 10:20:31;;;;;;;31.40;16.20;;;;;;;9.13;94.01;102171.10;104857;1301;74406;-73
2022/11/26 10:23:10;;;;;;;30.40;13.90;;;;;;;9.17;92.59;102172.67;103402;1294;69719;-73
2022/11/26 10:26:15;;;;;;;32.50;15.20;;;;;;;9.24;92.17;102175.15;103211;1301;71142;-73
2022/11/26 10:28:47;;;;;;;24.40;12.90;;;;;;;9.28;91.48;102175.48;103295;1300;61262;-73
2022/11/26 10:31:27;;;;;;;24.90;12.10;;;;;;;9.35;91.57;102181.91;105610;1287;59087;-73
2022/11/26 10:34:01;;;;;;;29.30;14.70;;;;;;;9.38;90.84;102179.42;105612;1294;74294;-73
2022/11/26 10:36:38;;;;;;;31.30;15.30;;;;;;;9.43;90.27;102182.20;105612;1294;70889;-74
2022/11/26 10:39:06;;;;;;;24.40;12.50;;;;;;;9.49;90.07;102183.44;105604;1293;71791;-73
2022/11/26 10:41:34;;;;;;;26.00;12.90;;;;;;;9.54;89.79;102185.27;105452;1294;60637;-73
2022/11/26 10:44:30;;;;;;;26.90;12.40;;;;;;;9.60;89.35;102188.52;105721;1293;59103;-73
2022/11/26 10:46:58;;;;;;;26.80;12.90;;;;;;;9.71;89.02;102187.05;103354;1301;74073;-73
2022/11/26 10:49:27;;;;;;;28.70;12.10;;;;;;;9.84;88.70;102190.30;103884;1293;70186;-72
2022/11/26 10:51:56;;;;;;;26.40;11.50;;;;;;;10.00;88.30;102190.92;103001;1301;71151;-73
2022/11/26 10:54:34;;;;;;;26.70;12.40;;;;;;;10.13;87.73;102189.03;104690;1294;60350;-73
2022/11/26 10:57:05;;;;;;;22.50;11.00;;;;;;;10.22;86.76;102191.27;103832;1295;61290;-73
2022/11/26 10:59:36;;;;;;;23.60;11.40;;;;;;;10.29;86.02;102189.42;105113;1293;73085;-73
2022/11/26 11:02:22;;;;;;;23.00;10.70;;;;;;;10.41;85.81;102191.01;103153;1294;71225;-73
2022/11/26 11:04:52;;;;;;;24.60;10.90;;;;;;;10.53;85.39;102192.95;103710;1295;72624;-73
2022/11/26 11:07:38;;;;;;;24.40;10.60;;;;;;;10.64;84.64;102192.12;103414;1295;61911;-74
2022/11/26 11:10:15;;;;;;;25.70;10.50;;;;;;;10.69;84.12;102188.99;103392;1295;61315;-73
2022/11/26 11:12:46;;;;;;;21.80;9.90;;;;;;;10.74;83.18;102187.52;103680;1302;74123;-74
2022/11/26 11:15:24;;;;;;;20.50;9.60;;;;;;;10.91;82.39;102188.77;103689;1294;70870;-73
2022/11/26 11:18:14;;;;;;;22.80;9.60;;;;;;;11.16;82.22;102187.77;105496;1294;72249;-73
2022/11/26 11:20:43;;;;;;;19.40;9.50;;;;;;;11.48;80.79;102192.91;105629;1295;60650;-74
2022/11/26 11:23:09;;;;;;;20.00;9.50;;;;;;;11.70;79.51;102186.42;105538;1294;60390;-73